createdAt,value
2024-01-11T00:03:25.886Z,100171.81
2024-01-11T00:08:33.006Z,100162.22
2024-01-11T00:13:40.793Z,100161.94
2024-01-11T00:18:48.561Z,100160.47
2024-01-11T00:23:53.930Z,100154.28
2024-01-11T00:28:59.006Z,100149.69
2024-01-11T00:34:07.039Z,100140.13
2024-01-11T00:39:13.130Z,100159.53
2024-01-11T00:44:18.652Z,100132.00
2024-01-11T00:49:26.653Z,100138.50
2024-01-11T00:54:31.934Z,100129.94
2024-01-11T00:59:39.070Z,100116.72
2024-01-11T01:04:57.929Z,100105.94
2024-01-11T01:10:03.150Z,100099.78
2024-01-11T01:15:11.206Z,100100.13
2024-01-11T01:20:21.403Z,100114.97
2024-01-11T01:25:27.032Z,100131.94
2024-01-11T01:30:32.172Z,100130.97
2024-01-11T01:35:40.193Z,100135.72
2024-01-11T01:40:45.368Z,100143.50
2024-01-11T01:45:52.571Z,100137.16
2024-01-11T01:51:00.538Z,100126.31
2024-01-11T01:56:09.972Z,100136.22
2024-01-11T02:01:15.821Z,100148.28
2024-01-11T02:06:26.382Z,100139.44
2024-01-11T02:11:34.750Z,100130.97
2024-01-11T02:16:40.492Z,100122.81
2024-01-11T02:21:50.662Z,100132.56
2024-01-11T02:27:06.065Z,100133.44
2024-01-11T02:32:11.434Z,100130.19
2024-01-11T02:37:17.241Z,100147.22
2024-01-11T02:42:24.933Z,100157.44
2024-01-11T02:47:31.166Z,100145.16
2024-01-11T02:52:39.249Z,100156.44
2024-01-11T02:57:47.011Z,100146.75
2024-01-11T03:02:53.842Z,100147.44
2024-01-11T03:07:58.932Z,100169.50
2024-01-11T03:13:07.197Z,100160.16
2024-01-11T03:18:12.818Z,100148.16
2024-01-11T03:23:18.173Z,100133.34
2024-01-11T03:28:26.066Z,100132.25
2024-01-11T03:33:31.493Z,100102.91
2024-01-11T03:38:38.920Z,100085.78
2024-01-11T03:43:53.309Z,100096.75
2024-01-11T03:49:00.278Z,100088.63
2024-01-11T03:54:05.398Z,100085.69
2024-01-11T03:59:15.660Z,100102.34
2024-01-11T04:04:20.930Z,100113.91
2024-01-11T04:09:26.052Z,100093.56
2024-01-11T04:14:33.830Z,100108.50
2024-01-11T04:19:38.918Z,100122.91
2024-01-11T04:24:47.275Z,100140.75
2024-01-11T04:29:54.886Z,100136.50
2024-01-11T04:35:00.032Z,100138.81
2024-01-11T04:40:05.294Z,100139.59
2024-01-11T04:45:16.775Z,100159.56
2024-01-11T04:50:23.109Z,100157.69
2024-01-11T04:55:28.631Z,100148.25
2024-01-11T05:00:36.347Z,100147.38
2024-01-11T05:05:41.522Z,100125.72
2024-01-11T05:10:46.899Z,100132.84
2024-01-11T05:15:56.809Z,100107.44
2024-01-11T05:21:01.940Z,100128.84
2024-01-11T05:26:07.488Z,100113.91
2024-01-11T05:31:17.045Z,100136.78
2024-01-11T05:36:23.051Z,100132.03
2024-01-11T05:41:28.287Z,100144.19
2024-01-11T05:46:36.437Z,100140.16
2024-01-11T05:51:41.838Z,100166.59
2024-01-11T05:56:46.993Z,100162.56
2024-01-11T06:01:55.055Z,100153.03
2024-01-11T06:07:00.666Z,100151.78
2024-01-11T06:12:05.725Z,100159.38
2024-01-11T06:17:14.040Z,100159.97
2024-01-11T06:22:19.865Z,100165.13
2024-01-11T06:27:26.152Z,100153.34
2024-01-11T06:32:34.296Z,100152.13
2024-01-11T06:37:39.644Z,100133.78
2024-01-11T06:42:44.793Z,100136.97
2024-01-11T06:47:53.246Z,100113.16
2024-01-11T06:52:58.615Z,100105.25
2024-01-11T06:58:04.890Z,100109.06
2024-01-11T07:03:13.201Z,100089.56
2024-01-11T07:08:21.563Z,100091.78
2024-01-11T07:13:26.848Z,100110.28
2024-01-11T07:18:38.966Z,100086.91
2024-01-11T07:23:44.713Z,100095.25
2024-01-11T07:28:49.846Z,100077.28
2024-01-11T07:33:57.718Z,100097.03
2024-01-11T07:39:02.937Z,100098.97
2024-01-11T07:44:08.362Z,100081.28
2024-01-11T07:49:16.814Z,100069.41
2024-01-11T07:54:22.038Z,100084.47
2024-01-11T07:59:29.451Z,100113.06
2024-01-11T08:04:40.311Z,100122.94
2024-01-11T08:09:46.838Z,100118.72
2024-01-11T08:14:52.461Z,100103.03
2024-01-11T08:20:00.352Z,100094.22
2024-01-11T08:25:06.789Z,100103.34
2024-01-11T08:30:14.957Z,100108.16
2024-01-11T08:35:22.925Z,100095.06
2024-01-11T08:40:28.227Z,100098.34
2024-01-11T08:45:33.671Z,100092.06
2024-01-11T08:50:57.709Z,100108.84
2024-01-11T08:56:06.752Z,100089.66
2024-01-11T09:01:15.034Z,100071.41
2024-01-11T09:06:23.080Z,100102.97
2024-01-11T09:11:28.246Z,100105.19
2024-01-11T09:16:34.229Z,100098.84
2024-01-11T09:21:42.656Z,100118.19
2024-01-11T09:26:47.970Z,100103.84
2024-01-11T09:31:56.762Z,100097.19
2024-01-11T09:37:05.105Z,100113.28
2024-01-11T09:42:12.373Z,100106.47
2024-01-11T09:47:21.704Z,100105.47
2024-01-11T09:52:34.458Z,100096.28
2024-01-11T09:57:45.537Z,100089.94
2024-01-11T10:02:51.216Z,100095.66
2024-01-11T10:07:59.169Z,100091.41
2024-01-11T10:13:04.317Z,100089.91
2024-01-11T10:18:10.108Z,100078.16
2024-01-11T10:23:18.611Z,100077.38
2024-01-11T10:28:26.333Z,100056.75
2024-01-11T10:33:34.776Z,100062.47
2024-01-11T10:38:43.917Z,100046.38
2024-01-11T10:43:54.420Z,100039.72
2024-01-11T10:49:02.623Z,100028.94
2024-01-11T10:54:12.102Z,100037.31
2024-01-11T10:59:20.924Z,100019.91
2024-01-11T11:04:27.022Z,100009.13
2024-01-11T11:09:38.245Z,100009.44
2024-01-11T11:15:06.186Z,100017.28
2024-01-11T11:20:26.797Z,100008.47
2024-01-11T11:25:40.612Z,100000.38
2024-01-11T11:30:50.145Z,99980.38
2024-01-11T11:36:07.250Z,99987.41
2024-01-11T11:41:22.975Z,99982.34
2024-01-11T11:46:32.700Z,99976.97
2024-01-11T11:51:43.905Z,99972.44
2024-01-11T11:56:55.237Z,99967.75
2024-01-11T12:02:04.988Z,99977.47
2024-01-11T12:07:12.784Z,99958.69
2024-01-11T12:12:22.728Z,99962.22
2024-01-11T12:17:28.439Z,99960.28
2024-01-11T12:22:35.853Z,99964.41
2024-01-11T12:27:46.486Z,99952.38
2024-01-11T12:32:57.061Z,99931.06
2024-01-11T12:38:05.655Z,99936.69
2024-01-11T12:43:16.687Z,99940.09
2024-01-11T12:48:25.945Z,99925.25
2024-01-11T12:53:39.881Z,99943.16
2024-01-11T12:59:10.184Z,99953.81
2024-01-11T13:04:16.484Z,99939.91
2024-01-11T13:09:21.869Z,99939.72
2024-01-11T13:14:30.421Z,99938.09
2024-01-11T13:19:35.568Z,99927.19
2024-01-11T13:24:40.731Z,99914.34
2024-01-11T13:29:52.190Z,99900.28
2024-01-11T13:35:00.542Z,99913.53
2024-01-11T13:40:06.245Z,99915.16
2024-01-11T13:45:16.135Z,99935.50
2024-01-11T13:50:26.313Z,99944.16
2024-01-11T13:55:40.051Z,99933.69
2024-01-11T14:00:48.788Z,99923.22
2024-01-11T14:05:54.323Z,99928.38
2024-01-11T14:10:59.757Z,99915.56
2024-01-11T14:16:19.857Z,99911.31
2024-01-11T14:21:26.200Z,99911.47
2024-01-11T14:26:36.358Z,99906.00
2024-01-11T14:31:44.391Z,99904.53
2024-01-11T14:36:52.198Z,99929.03
2024-01-11T14:41:57.388Z,99931.31
2024-01-11T14:47:05.661Z,99930.03
2024-01-11T14:52:10.861Z,99936.53
2024-01-11T14:57:16.651Z,99928.56
2024-01-11T15:02:25.782Z,99917.41
2024-01-11T15:07:32.362Z,99928.16
2024-01-11T15:12:38.099Z,99927.53
2024-01-11T15:17:47.086Z,99912.38
2024-01-11T15:22:52.335Z,99913.28
2024-01-11T15:27:57.951Z,99930.59
2024-01-11T15:33:08.189Z,99929.13
2024-01-11T15:38:13.471Z,99934.63
2024-01-11T15:43:20.964Z,99953.41
2024-01-11T15:48:28.788Z,99936.34
2024-01-11T15:53:34.965Z,99926.19
2024-01-11T15:58:40.761Z,99928.84
2024-01-11T16:03:50.983Z,99932.06
2024-01-11T16:08:57.414Z,99927.19
2024-01-11T16:14:03.134Z,99970.72
2024-01-11T16:19:13.320Z,99973.97
2024-01-11T16:24:19.774Z,99985.44
2024-01-11T16:29:25.212Z,99990.50
2024-01-11T16:34:34.221Z,100006.34
2024-01-11T16:39:41.680Z,100012.44
2024-01-11T16:44:47.072Z,100026.91
2024-01-11T16:49:55.367Z,100024.00
2024-01-11T16:55:00.468Z,100029.22
2024-01-11T17:00:08.858Z,100031.81
2024-01-11T17:05:16.775Z,100034.47
2024-01-11T17:10:23.826Z,100036.59
2024-01-11T17:15:29.807Z,100041.06
2024-01-11T17:20:37.549Z,100037.16
2024-01-11T17:25:45.120Z,100055.38
2024-01-11T17:30:50.309Z,100056.75
2024-01-11T17:35:59.552Z,100055.09
2024-01-11T17:41:07.546Z,100055.66
2024-01-11T17:46:12.834Z,100064.88
2024-01-11T17:51:20.599Z,100070.47
2024-01-11T17:56:26.101Z,100101.16
2024-01-11T18:01:34.048Z,100094.50
2024-01-11T18:06:43.844Z,100114.38
2024-01-11T18:11:51.722Z,100102.88
2024-01-11T18:16:56.921Z,100095.13
2024-01-11T18:22:05.732Z,100100.25
2024-01-11T18:27:11.714Z,100097.19
2024-01-11T18:32:16.887Z,100096.19
2024-01-11T18:37:28.480Z,100089.47
2024-01-11T18:42:33.940Z,100099.03
2024-01-11T18:47:42.377Z,100113.53
2024-01-11T18:52:51.845Z,100115.84
2024-01-11T18:57:57.030Z,100100.13
2024-01-11T19:03:02.938Z,100105.72
2024-01-11T19:08:11.711Z,100102.13
2024-01-11T19:13:19.777Z,100101.63
2024-01-11T19:18:25.497Z,100099.66
2024-01-11T19:23:36.714Z,100108.00
2024-01-11T19:28:44.382Z,100112.47
2024-01-11T19:33:50.039Z,100105.50
2024-01-11T19:39:02.066Z,100102.69
2024-01-11T19:44:09.645Z,100108.81
2024-01-11T19:49:15.125Z,100094.22
2024-01-11T19:54:23.490Z,100093.59
2024-01-11T19:59:30.365Z,100097.84
2024-01-11T20:04:36.048Z,100091.13
2024-01-11T20:09:45.911Z,100098.38
2024-01-11T20:14:54.110Z,100092.44
2024-01-11T20:19:59.358Z,100089.22
2024-01-11T20:25:07.712Z,100099.56
2024-01-11T20:30:15.572Z,100098.91
2024-01-11T20:35:21.423Z,100082.53
2024-01-11T20:40:29.198Z,100075.13
2024-01-11T20:45:34.711Z,100072.84
2024-01-11T20:50:41.626Z,100076.72
2024-01-11T20:55:56.318Z,100076.13
2024-01-11T21:01:07.189Z,100085.50
2024-01-11T21:06:14.620Z,100085.41
2024-01-11T21:11:22.801Z,100090.25
2024-01-11T21:16:28.076Z,100097.19
2024-01-11T21:21:33.190Z,100108.44
2024-01-11T21:26:41.293Z,100115.28
2024-01-11T21:31:46.957Z,100125.22
2024-01-11T21:36:52.092Z,100116.47
2024-01-11T21:41:59.977Z,100111.47
2024-01-11T21:47:05.201Z,100125.31
2024-01-11T21:52:10.515Z,100133.75
2024-01-11T21:57:18.237Z,100134.13
2024-01-11T22:02:23.451Z,100161.47
2024-01-11T22:07:28.550Z,100146.31
2024-01-11T22:12:36.330Z,100143.50
2024-01-11T22:17:41.551Z,100141.78
2024-01-11T22:22:46.940Z,100144.13
2024-01-11T22:27:57.079Z,100140.81
2024-01-11T22:33:04.750Z,100147.78
2024-01-11T22:38:10.107Z,100131.50
2024-01-11T22:43:18.434Z,100144.59
2024-01-11T22:48:23.710Z,100139.47
2024-01-11T22:53:36.736Z,100140.34
2024-01-11T22:58:46.983Z,100134.50
2024-01-11T23:03:52.279Z,100134.38
2024-01-11T23:08:57.487Z,100134.75
2024-01-11T23:14:06.991Z,100132.59
2024-01-11T23:19:12.082Z,100138.59
2024-01-11T23:24:17.343Z,100131.03
2024-01-11T23:29:26.233Z,100138.22
2024-01-11T23:34:31.854Z,100137.31
2024-01-11T23:39:37.174Z,100128.78
2024-01-11T23:44:45.595Z,100113.91
2024-01-11T23:49:50.823Z,100117.66
2024-01-11T23:54:56.108Z,100116.41
